עמוד ראשי
METAR-TAF:

METAR-TAF

שדות תעופה :

Turaif, ערב הסעודית

קו רוחב: 31-41N, קו אורך: 038-44E, גובה: 813מטר

תצפית מזג אוויר נוכחית

הדו"ח נערך לפני 27דקות, בשעה 11:00 UTC
רוח 11קשר מכיוון דרום
טמפרטורת 42 צלסיוס
לחות 6%
לחץ 1010 hPa
ראות 10 קילומטר או יותר
עננים פזורים בגובה 4000רגל

METAR: OETR 191100Z 17011KT 9999 SCT040 42/M03 Q1010 NOSIG

זמן: 14:27 (11:27 UTC)

תחזית

הדו"ח נערך לפני 12 שעות ו 27דקות, בשעה 23:00 UTC
תחזית בתוקף מ 19 ב 00 UTC עד 20 ב 06 UTC
רוח 10קשר מכיוון מזרח
ראות 10 קילומטר או יותר
מעט עננים בגובה 3000רגל
יעשה מ
19 ב 06 UTC עד 19 ב 08 UTC
רוח 14קשר מכיוון דרום
הסתברות 30% :
זמנית מ -
19 ב 10 UTC עד 19 ב 16 UTC
מעט עננים בגובה 3500רגל , קומולונימבוס.
יעשה מ
19 ב 18 UTC עד 19 ב 20 UTC
רוח 12קשר מכיוון צפון/צפון-מזרח

TAF: OETR 182300Z 1900/2006 09010KT 9999 FEW030 BECMG 1906/1908 18014KT PROB30 TEMPO 1910/1916 FEW035CB BECMG 1918/1920 03012KT

תצפיות ותחזיות מזג אוויר לגבי יותר מ- 4,000 שדות תעופה ברחבי העולם. דוחות METAR ו- TAF.

התחנות הזמינות מסומנות בנקודות צהובות ואדומות על גבי המפה.

העבר את העכבר לנקודה הצבעונית על מנת לראות את שם התחנה.

לאחר מכן, לחץ כדי לראות את תוכן ואת תחזיות מזג האוויר.

כדי לשנות את המפה: לחץ על הכפתורים הירוקים עם הפלוס השחור כדי להתקרב; על הכפתור הירוק עם המקף כדי להתרחק; או בחיצים הירוקים למפות סמוכות.


METAR-TAF: